This is the latest recevied weather packets stored in our database for station/object DH3PAE-6. If no packets are shown the sender has not sent any weather packets the latest 10 day(s).
| Time | Temp. | Humidity | Pressure | Rain* | Wind** | Luminosity | Snow |
|---|---|---|---|---|---|---|---|
| 1777315337 | 12.78° C | 55% | 1018.9 hPa | 0 mm | - | 0 W/m² | - |
| 1777314737 | 13.33° C | 52% | 1019 hPa | 0 mm | - | 9 W/m² | - |
| 1777309337 | 16.11° C | 39% | 1018.9 hPa | 0 mm | - | 111 W/m² | - |
| 1777306937 | 17.22° C | 36% | 1018.9 hPa | 0 mm | - | 344 W/m² | - |
| 1777304540 | 17.22° C | 40% | 1019.4 hPa | 0 mm | - | 533 W/m² | - |
| 1777302737 | 17.78° C | 42% | 1019.4 hPa | 0 mm | - | 545 W/m² | - |
| 1777300337 | 17.78° C | 39% | 1019.9 hPa | 0 mm | - | 668 W/m² | - |
| 1777299737 | 17.78° C | 41% | 1019.9 hPa | 0 mm | - | 714 W/m² | - |
| 1777299137 | 17.78° C | 36% | 1019.9 hPa | 0 mm | - | 694 W/m² | - |
| 1777297937 | 17.78° C | 37% | 1020.5 hPa | 0 mm | - | 719 W/m² | - |
| 1777297337 | 17.78° C | 34% | 1020.4 hPa | 0 mm | - | 659 W/m² | - |
| 1777291337 | 16.11° C | 49% | 1021.2 hPa | 0 mm | - | 564 W/m² | - |
| 1777290737 | 16.11° C | 41% | 1021.3 hPa | 0 mm | - | 538 W/m² | - |
| 1777289537 | 16.11° C | 42% | 1021.5 hPa | 0 mm | - | 515 W/m² | - |
| 1777282940 | 15° C | 49% | 1022 hPa | 0 mm | - | 584 W/m² | - |
| 1777281137 | 13.89° C | 53% | 1022.4 hPa | 0 mm | - | 563 W/m² | - |
| 1777280540 | 14.44° C | 58% | 1022.7 hPa | 0 mm | - | 626 W/m² | - |
| 1777277537 | 11.67° C | 63% | 1022.5 hPa | 0 mm | - | 424 W/m² | - |
| 1777276336 | 10.56° C | 66% | 1022.6 hPa | 0 mm | - | 452 W/m² | - |
| 1777275137 | 10° C | 67% | 1022.6 hPa | 0 mm | - | 276 W/m² | - |
| 1777273937 | 8.33° C | 75% | 1022.5 hPa | 0 mm | - | 350 W/m² | - |
| 1777272739 | 7.22° C | 83% | 1022.8 hPa | 0 mm | - | 223 W/m² | - |
| 1777270939 | 3.89° C | 89% | 1022.5 hPa | 0 mm | - | 134 W/m² | - |
| 1777269736 | 2.22° C | 91% | 1022.5 hPa | 0 mm | - | 131 W/m² | - |
| 1777268179 | 1.11° C | 92% | 1022.3 hPa | 0 mm | - | 72 W/m² | - |
* Rain latest hour (hover to see other rain measurements)
** Current wind speed in m/s (hover to see current wind gust speed)